Time;durP1;ratioP1;P1;durP2;ratioP2;P2;SDS_P1;SDS_P2;PMS_P1;PMS_P2;Temp;Humidity;BMP_temperature;BMP_pressure;BME280_temperature;BME280_humidity;BME280_pressure;Samples;Min_cycle;Max_cycle;Signal;HPM_P1;HPM_P2
2022/01/04 00:02:18;;;;;;;14.30;5.60;;;6.90;99.90;;;;;;5040847;28;20540;-76
2022/01/04 00:04:43;;;;;;;12.05;4.97;;;6.90;99.90;;;;;;5020196;28;20492;-77
2022/01/04 00:07:09;;;;;;;15.40;5.70;;;6.90;99.90;;;;;;5036531;28;20048;-77
2022/01/04 00:09:39;;;;;;;10.57;4.63;;;6.90;99.90;;;;;;5021330;28;20028;-78
2022/01/04 00:14:50;;;;;;;12.85;5.60;;;6.90;99.90;;;;;;5031156;28;20385;-77
2022/01/04 00:17:16;;;;;;;18.48;6.30;;;6.90;99.90;;;;;;5029030;28;20009;-77
2022/01/04 00:19:41;;;;;;;15.50;5.38;;;6.90;99.90;;;;;;5019675;28;20184;-76
2022/01/04 00:22:08;;;;;;;13.60;5.75;;;6.90;99.90;;;;;;5029805;28;20021;-77
2022/01/04 00:24:34;;;;;;;13.10;5.38;;;6.90;99.90;;;;;;5034638;28;20539;-76
2022/01/04 00:27:00;;;;;;;15.30;6.13;;;7.00;99.90;;;;;;5040117;28;20104;-77
2022/01/04 00:29:25;;;;;;;9.52;5.25;;;7.00;99.90;;;;;;5016182;28;20101;-76
2022/01/04 00:31:51;;;;;;;11.43;5.10;;;7.00;99.90;;;;;;5040672;28;20099;-76
2022/01/04 00:34:16;;;;;;;18.55;6.00;;;6.90;99.90;;;;;;5039912;28;20084;-77
2022/01/04 00:36:42;;;;;;;17.98;5.82;;;6.90;99.90;;;;;;5033750;28;20025;-76
2022/01/04 00:39:07;;;;;;;18.90;5.93;;;6.90;99.90;;;;;;5015465;28;20045;-76
2022/01/04 00:41:34;;;;;;;13.93;5.93;;;7.00;99.90;;;;;;5020671;28;20605;-77
2022/01/04 00:43:59;;;;;;;13.18;5.85;;;6.90;99.90;;;;;;5038006;28;20128;-77
2022/01/04 00:46:25;;;;;;;19.25;5.57;;;6.90;99.90;;;;;;5042400;28;20083;-77
2022/01/04 00:51:35;;;;;;;15.82;5.70;;;6.90;99.90;;;;;;5037089;28;20033;-76
2022/01/04 00:54:01;;;;;;;14.65;6.97;;;6.90;99.90;;;;;;5037621;28;20032;-77
2022/01/04 00:56:26;;;;;;;18.65;5.82;;;6.90;99.90;;;;;;5037061;28;20100;-77
2022/01/04 00:58:53;;;;;;;12.48;6.00;;;6.90;99.90;;;;;;5020070;28;20503;-77
2022/01/04 01:01:19;;;;;;;15.40;6.95;;;6.90;99.90;;;;;;5019983;28;20028;-77
2022/01/04 01:03:45;;;;;;;16.70;6.68;;;6.90;99.90;;;;;;5038252;28;20088;-76
2022/01/04 01:06:10;;;;;;;12.00;5.13;;;6.90;99.90;;;;;;5020197;28;20112;-77
2022/01/04 01:08:36;;;;;;;17.45;6.70;;;6.90;99.90;;;;;;5029351;28;20028;-77
2022/01/04 01:11:04;;;;;;;20.73;7.10;;;6.80;99.90;;;;;;5031828;28;20030;-77
2022/01/04 01:13:29;;;;;;;15.60;6.57;;;6.90;99.90;;;;;;5012978;28;20047;-77
2022/01/04 01:15:55;;;;;;;13.27;5.45;;;6.80;99.90;;;;;;5020529;28;20480;-77
2022/01/04 01:18:21;;;;;;;13.75;6.68;;;6.90;99.90;;;;;;5037865;28;20026;-76
2022/01/04 01:20:48;;;;;;;18.35;6.20;;;6.90;99.90;;;;;;5025179;28;20071;-77
2022/01/04 01:23:13;;;;;;;11.70;6.60;;;6.90;99.90;;;;;;5039085;28;20068;-77
2022/01/04 01:25:39;;;;;;;13.52;7.00;;;6.90;99.90;;;;;;5037599;28;20632;-77
2022/01/04 01:28:05;;;;;;;18.67;6.57;;;6.90;99.90;;;;;;5037500;28;20037;-78
2022/01/04 01:33:00;;;;;;;15.43;6.55;;;6.80;99.90;;;;;;5046794;28;20037;-49
2022/01/04 01:35:25;;;;;;;19.77;7.63;;;6.80;99.90;;;;;;5040314;28;20041;-48
2022/01/04 01:37:51;;;;;;;13.13;7.10;;;6.80;99.90;;;;;;5039978;28;20140;-51
2022/01/04 01:40:16;;;;;;;15.00;6.93;;;6.80;99.90;;;;;;5039467;28;20501;-49
2022/01/04 01:42:42;;;;;;;15.60;7.70;;;6.80;99.90;;;;;;5038961;28;20017;-50
2022/01/04 01:45:10;;;;;;;23.42;8.43;;;6.70;99.90;;;;;;5039471;28;20103;-50
2022/01/04 01:47:38;;;;;;;16.60;7.28;;;6.70;99.90;;;;;;5040074;28;20053;-51
2022/01/04 01:50:04;;;;;;;14.77;7.15;;;6.80;99.90;;;;;;5039809;28;20490;-48
2022/01/04 01:52:30;;;;;;;19.33;9.40;;;6.70;99.90;;;;;;5039408;28;20507;-48
2022/01/04 01:54:56;;;;;;;14.57;7.65;;;6.70;99.90;;;;;;5039962;28;20111;-51
2022/01/04 01:57:24;;;;;;;16.17;8.27;;;6.70;99.90;;;;;;5039534;28;20428;-52
2022/01/04 01:59:49;;;;;;;14.02;8.20;;;6.70;99.90;;;;;;5036824;28;20017;-50
2022/01/04 02:02:15;;;;;;;19.40;9.00;;;6.70;99.90;;;;;;5038313;28;20032;-52
2022/01/04 02:04:42;;;;;;;19.13;8.32;;;6.70;99.90;;;;;;5039172;28;20278;-51
2022/01/04 02:07:09;;;;;;;15.95;8.13;;;6.70;99.90;;;;;;5040080;28;20031;-52
2022/01/04 02:09:39;;;;;;;17.17;9.45;;;6.70;99.90;;;;;;5039230;28;20025;-51
2022/01/04 02:12:07;;;;;;;18.23;8.73;;;6.70;99.90;;;;;;5040103;28;20472;-50
2022/01/04 02:14:32;;;;;;;16.95;8.77;;;6.70;99.90;;;;;;5039297;28;20016;-52
2022/01/04 02:16:58;;;;;;;17.17;7.90;;;6.70;99.90;;;;;;5040444;28;20113;-52
2022/01/04 02:19:24;;;;;;;13.38;7.70;;;6.70;99.90;;;;;;5041058;28;20037;-52
2022/01/04 02:21:50;;;;;;;18.77;8.65;;;6.70;99.90;;;;;;5042305;28;20330;-52
2022/01/04 02:24:16;;;;;;;12.20;6.70;;;6.70;99.90;;;;;;5040902;28;20029;-50
2022/01/04 02:26:42;;;;;;;16.70;7.38;;;6.70;99.90;;;;;;5041566;28;20029;-50
2022/01/04 02:29:08;;;;;;;16.67;7.15;;;6.70;99.90;;;;;;5040427;28;20056;-52
2022/01/04 02:31:35;;;;;;;17.58;7.95;;;6.70;99.90;;;;;;5040218;28;20404;-50
2022/01/04 02:34:01;;;;;;;20.67;8.23;;;6.70;99.90;;;;;;5036332;28;20029;-52
2022/01/04 02:36:26;;;;;;;19.00;8.57;;;6.70;99.90;;;;;;5026575;28;20021;-55
2022/01/04 02:38:52;;;;;;;16.08;8.10;;;6.70;99.90;;;;;;5039440;28;20013;-48
2022/01/04 02:41:18;;;;;;;19.33;7.78;;;6.70;99.90;;;;;;5039373;28;20452;-48
2022/01/04 02:43:43;;;;;;;15.48;7.70;;;6.70;99.90;;;;;;5040102;28;20031;-48
2022/01/04 02:46:09;;;;;;;21.83;8.45;;;6.70;99.90;;;;;;5039596;28;20029;-51
2022/01/04 02:48:44;;;;;;;15.57;8.07;;;6.70;99.90;;;;;;5038355;28;20053;-55
2022/01/04 02:51:11;;;;;;;21.40;8.60;;;6.70;99.90;;;;;;5037817;28;20033;-48
2022/01/04 02:56:04;;;;;;;16.65;7.85;;;6.70;99.90;;;;;;5008803;28;20421;-60
2022/01/04 02:58:30;;;;;;;19.55;7.32;;;6.70;99.90;;;;;;5010239;28;20030;-59
2022/01/04 03:00:55;;;;;;;13.70;7.15;;;6.70;99.90;;;;;;5010651;28;20064;-60
2022/01/04 03:03:21;;;;;;;14.93;7.47;;;6.70;99.90;;;;;;5010905;28;20349;-59
2022/01/04 03:05:46;;;;;;;17.10;6.93;;;6.70;99.90;;;;;;5028428;28;20072;-60
2022/01/04 03:08:12;;;;;;;16.92;7.65;;;6.70;99.90;;;;;;5012326;28;20028;-59
2022/01/04 03:10:38;;;;;;;17.58;8.15;;;6.70;99.90;;;;;;5011675;28;20033;-60
2022/01/04 03:13:05;;;;;;;13.00;6.63;;;6.70;99.90;;;;;;5029950;28;20395;-57
2022/01/04 03:15:31;;;;;;;18.35;7.50;;;6.70;99.90;;;;;;5029605;28;20060;-60
2022/01/04 03:17:56;;;;;;;12.38;7.53;;;6.70;99.90;;;;;;5028368;28;20053;-60
2022/01/04 03:20:22;;;;;;;10.52;6.82;;;6.70;99.90;;;;;;5027658;28;20029;-59
2022/01/04 03:22:47;;;;;;;15.23;7.43;;;6.70;99.90;;;;;;5012180;28;20026;-59
2022/01/04 03:25:13;;;;;;;16.55;7.88;;;6.70;99.90;;;;;;5029678;28;20102;-59
2022/01/04 03:27:39;;;;;;;15.60;7.85;;;6.70;99.90;;;;;;5028811;28;20060;-60
2022/01/04 03:30:05;;;;;;;25.10;7.80;;;6.70;99.90;;;;;;5028927;28;20415;-59
2022/01/04 03:32:31;;;;;;;21.75;7.00;;;6.70;99.90;;;;;;5026830;28;20111;-59
2022/01/04 03:34:56;;;;;;;15.00;7.22;;;6.70;99.90;;;;;;5029032;28;20479;-58
2022/01/04 03:37:22;;;;;;;17.30;8.43;;;6.70;99.90;;;;;;5028402;28;20030;-58
2022/01/04 03:39:48;;;;;;;13.00;6.88;;;6.80;99.90;;;;;;5010774;28;20025;-59
2022/01/04 03:42:13;;;;;;;18.83;8.77;;;6.80;99.90;;;;;;5011354;28;20502;-59
2022/01/04 03:44:39;;;;;;;21.33;8.07;;;6.80;99.90;;;;;;5027590;28;20034;-58
2022/01/04 03:47:05;;;;;;;16.50;8.18;;;6.80;99.90;;;;;;5011661;28;20029;-58
2022/01/04 03:49:31;;;;;;;15.93;7.72;;;6.80;99.90;;;;;;5027515;28;20048;-60
2022/01/04 03:51:56;;;;;;;14.10;8.23;;;6.80;99.90;;;;;;5011190;28;20034;-60
2022/01/04 03:54:22;;;;;;;19.75;7.88;;;6.80;99.90;;;;;;5027399;28;20073;-59
2022/01/04 03:56:48;;;;;;;13.30;7.78;;;6.80;99.90;;;;;;5029793;28;20404;-59
2022/01/04 03:59:14;;;;;;;14.80;8.38;;;6.80;99.90;;;;;;5011092;28;20112;-58
2022/01/04 04:01:40;;;;;;;16.90;7.78;;;6.80;99.90;;;;;;5028957;28;20445;-59
2022/01/04 04:04:06;;;;;;;21.13;9.63;;;6.80;99.90;;;;;;5028737;28;20032;-59
2022/01/04 04:06:31;;;;;;;18.35;8.57;;;6.80;99.90;;;;;;5027320;28;20100;-58
2022/01/04 04:08:57;;;;;;;12.73;8.55;;;6.80;99.90;;;;;;5027885;28;20021;-58
2022/01/04 04:11:26;;;;;;;17.15;9.45;;;6.80;99.90;;;;;;5027450;28;20318;-59
2022/01/04 04:13:52;;;;;;;18.65;9.15;;;6.80;99.90;;;;;;5027280;28;20030;-59
2022/01/04 04:16:17;;;;;;;23.02;9.98;;;6.90;99.90;;;;;;5027458;28;20075;-57
2022/01/04 04:18:43;;;;;;;20.63;10.02;;;6.80;99.90;;;;;;5027978;28;20032;-59
2022/01/04 04:21:08;;;;;;;22.65;10.57;;;6.80;99.90;;;;;;5027394;28;20021;-58
2022/01/04 04:23:34;;;;;;;21.77;10.02;;;6.80;99.90;;;;;;5026956;28;20058;-58
2022/01/04 04:26:00;;;;;;;14.93;9.32;;;6.80;99.90;;;;;;5027840;28;20032;-59
2022/01/04 04:28:26;;;;;;;18.65;10.82;;;6.80;99.90;;;;;;5026538;28;20053;-59
2022/01/04 04:30:51;;;;;;;20.45;10.73;;;6.80;99.90;;;;;;5027292;28;20375;-59
2022/01/04 04:33:17;;;;;;;19.08;10.25;;;6.80;99.90;;;;;;5010944;28;20033;-59
2022/01/04 04:35:43;;;;;;;17.67;9.65;;;6.80;99.90;;;;;;5026470;28;20108;-59
2022/01/04 04:38:08;;;;;;;21.08;10.85;;;6.80;99.90;;;;;;5028039;28;20039;-59
2022/01/04 04:40:34;;;;;;;19.35;10.02;;;6.80;99.90;;;;;;5026673;28;20028;-58
2022/01/04 04:43:00;;;;;;;17.58;11.43;;;6.80;99.90;;;;;;5027559;28;20056;-57
2022/01/04 04:45:26;;;;;;;23.92;11.90;;;6.80;99.90;;;;;;5026935;28;20029;-59
2022/01/04 04:47:51;;;;;;;17.25;10.90;;;6.80;99.90;;;;;;5027885;28;20090;-59
2022/01/04 04:50:17;;;;;;;28.17;11.48;;;6.80;99.90;;;;;;5010482;28;20104;-60
2022/01/04 04:52:43;;;;;;;20.95;11.98;;;6.80;99.90;;;;;;5027685;28;20026;-59
2022/01/04 04:55:10;;;;;;;19.75;11.75;;;6.80;99.90;;;;;;5027443;28;20542;-59
2022/01/04 04:57:36;;;;;;;20.65;11.18;;;6.80;99.90;;;;;;5008947;28;20490;-57
2022/01/04 05:00:03;;;;;;;18.05;10.68;;;6.80;99.90;;;;;;5027033;28;20033;-59
2022/01/04 05:02:29;;;;;;;19.25;10.38;;;6.90;99.90;;;;;;5025387;28;20068;-59
2022/01/04 05:04:54;;;;;;;23.35;11.00;;;6.90;99.90;;;;;;5027080;28;20457;-59
2022/01/04 05:07:20;;;;;;;19.75;9.75;;;6.90;99.90;;;;;;5009130;28;20025;-59
2022/01/04 05:09:46;;;;;;;18.45;10.80;;;6.90;99.90;;;;;;5028701;28;20033;-57
2022/01/04 05:12:12;;;;;;;20.58;11.20;;;6.80;99.90;;;;;;5029706;28;20029;-59
2022/01/04 05:14:39;;;;;;;22.38;11.95;;;6.80;99.90;;;;;;5008572;28;20026;-57
2022/01/04 05:17:04;;;;;;;17.70;11.10;;;6.80;99.90;;;;;;5010758;28;20112;-59
2022/01/04 05:19:30;;;;;;;25.58;13.10;;;6.80;99.90;;;;;;5026213;28;20121;-58
2022/01/04 05:21:56;;;;;;;20.55;11.13;;;6.80;99.90;;;;;;5010005;28;20626;-58
2022/01/04 05:24:21;;;;;;;19.80;12.02;;;6.80;99.90;;;;;;5026377;28;20030;-58
2022/01/04 05:26:47;;;;;;;21.52;11.65;;;6.80;99.90;;;;;;4992807;28;20065;-59
2022/01/04 05:29:13;;;;;;;25.08;11.88;;;6.80;99.90;;;;;;5027039;28;20084;-59
2022/01/04 05:31:38;;;;;;;21.23;11.38;;;6.80;99.90;;;;;;5027348;28;20399;-56
2022/01/04 05:34:04;;;;;;;22.52;12.48;;;6.80;99.90;;;;;;5027209;28;20067;-58
2022/01/04 05:36:29;;;;;;;25.02;12.90;;;6.80;99.90;;;;;;5026165;28;20025;-58
2022/01/04 05:38:55;;;;;;;21.48;12.38;;;6.80;99.90;;;;;;5026572;28;20025;-60
2022/01/04 05:41:20;;;;;;;22.50;12.20;;;6.80;99.90;;;;;;5009083;28;20276;-58
2022/01/04 05:43:47;;;;;;;18.65;11.88;;;6.90;99.90;;;;;;5009099;28;20033;-58
2022/01/04 05:46:14;;;;;;;22.02;12.70;;;6.90;99.90;;;;;;5027208;28;20077;-58
2022/01/04 05:48:40;;;;;;;22.50;12.40;;;6.90;99.90;;;;;;5036862;28;20523;-59
2022/01/04 05:51:06;;;;;;;20.48;12.07;;;6.90;99.90;;;;;;5024658;28;20847;-59
2022/01/04 05:53:33;;;;;;;23.45;12.00;;;6.80;99.90;;;;;;5026106;28;20046;-59
2022/01/04 05:55:58;;;;;;;22.83;12.63;;;6.90;99.90;;;;;;5030450;28;20029;-59
2022/01/04 05:58:24;;;;;;;20.63;12.05;;;6.90;99.90;;;;;;5030278;28;20032;-59
2022/01/04 06:00:50;;;;;;;26.52;13.15;;;6.80;99.90;;;;;;5030851;28;20040;-59
2022/01/04 06:03:15;;;;;;;27.15;13.02;;;6.90;99.90;;;;;;5030721;28;20073;-58
2022/01/04 06:05:41;;;;;;;24.75;12.45;;;6.80;99.90;;;;;;5032778;28;20134;-59
2022/01/04 06:08:06;;;;;;;23.05;12.93;;;6.90;99.90;;;;;;5029918;28;20076;-58
2022/01/04 06:10:38;;;;;;;28.08;13.30;;;6.90;99.90;;;;;;5028927;28;20037;-57
2022/01/04 06:15:29;;;;;;;20.88;12.77;;;6.80;99.90;;;;;;5029646;28;20033;-59
2022/01/04 06:17:55;;;;;;;19.90;11.88;;;6.90;99.90;;;;;;5030518;28;20503;-59
2022/01/04 06:20:22;;;;;;;24.13;12.98;;;6.90;99.90;;;;;;5030279;28;20440;-59
2022/01/04 06:22:49;;;;;;;18.45;12.93;;;6.90;99.90;;;;;;5031404;28;20442;-58
2022/01/04 06:25:17;;;;;;;19.70;14.07;;;6.90;99.90;;;;;;5013455;28;20025;-59
2022/01/04 06:27:45;;;;;;;23.10;13.80;;;6.90;99.90;;;;;;5029778;28;20549;-59
2022/01/04 06:30:13;;;;;;;27.92;13.55;;;6.90;99.90;;;;;;5029806;28;20104;-59
2022/01/04 06:32:42;;;;;;;21.80;13.07;;;6.90;99.90;;;;;;5030112;28;20599;-59
2022/01/04 06:35:08;;;;;;;20.75;12.50;;;6.90;99.90;;;;;;5030332;28;20029;-59
2022/01/04 06:37:34;;;;;;;15.98;10.85;;;6.90;99.90;;;;;;5030004;28;20087;-59
2022/01/04 06:39:59;;;;;;;19.38;9.35;;;6.90;99.90;;;;;;5012277;28;20032;-59
2022/01/04 06:42:25;;;;;;;17.33;10.80;;;6.80;99.90;;;;;;5029681;28;20104;-59
2022/01/04 06:44:51;;;;;;;18.45;9.85;;;6.80;99.90;;;;;;5028924;28;20060;-59
2022/01/04 06:47:16;;;;;;;13.25;9.25;;;6.80;99.90;;;;;;5029983;28;20037;-58
2022/01/04 06:49:42;;;;;;;16.90;10.13;;;6.80;99.90;;;;;;5029060;28;20017;-60
2022/01/04 06:52:08;;;;;;;14.48;9.02;;;6.80;99.90;;;;;;5012633;28;20128;-58
2022/01/04 06:54:34;;;;;;;18.85;9.57;;;6.70;99.90;;;;;;5010922;28;20041;-59
2022/01/04 06:57:00;;;;;;;14.38;9.73;;;6.70;99.90;;;;;;5028582;28;20419;-59
2022/01/04 06:59:25;;;;;;;21.10;11.88;;;6.70;99.90;;;;;;5028697;28;20021;-59
2022/01/04 07:01:51;;;;;;;24.20;12.60;;;6.70;99.90;;;;;;5011775;28;20017;-59
2022/01/04 07:04:16;;;;;;;22.48;11.40;;;6.70;99.90;;;;;;5029379;28;20032;-59
2022/01/04 07:06:42;;;;;;;21.88;12.73;;;6.70;99.90;;;;;;5010773;28;20409;-59
2022/01/04 07:09:09;;;;;;;17.95;12.65;;;6.60;99.90;;;;;;5028543;28;20064;-60
2022/01/04 07:11:35;;;;;;;25.88;14.30;;;6.60;99.90;;;;;;5011110;28;20022;-58
2022/01/04 07:14:02;;;;;;;27.20;14.55;;;6.70;99.90;;;;;;5030570;28;20053;-58
2022/01/04 07:16:28;;;;;;;24.10;14.88;;;6.60;99.90;;;;;;5027194;28;20108;-59
2022/01/04 07:18:54;;;;;;;24.40;14.80;;;6.60;99.90;;;;;;5028573;28;20052;-59
2022/01/04 07:21:21;;;;;;;31.73;16.60;;;6.70;99.90;;;;;;5030126;28;20029;-60
2022/01/04 07:23:48;;;;;;;24.75;15.50;;;6.60;99.90;;;;;;5029913;28;20075;-60
2022/01/04 07:26:15;;;;;;;29.35;17.00;;;6.70;99.90;;;;;;5011381;28;20080;-60
2022/01/04 07:28:42;;;;;;;27.02;17.42;;;6.70;99.90;;;;;;5028086;28;20029;-59
2022/01/04 07:31:09;;;;;;;34.10;17.15;;;6.70;99.90;;;;;;5011013;28;20025;-60
2022/01/04 07:33:35;;;;;;;31.40;17.45;;;6.70;99.90;;;;;;5028640;28;20039;-57
2022/01/04 07:36:01;;;;;;;29.23;17.52;;;6.70;99.90;;;;;;5028818;28;20476;-61
2022/01/04 07:38:26;;;;;;;30.27;17.30;;;6.70;99.90;;;;;;5028180;28;20022;-60
2022/01/04 07:40:52;;;;;;;30.45;18.23;;;6.70;99.90;;;;;;5028399;28;20031;-60
2022/01/04 07:43:17;;;;;;;30.10;18.27;;;6.70;99.90;;;;;;5010573;28;20096;-59
2022/01/04 07:45:43;;;;;;;34.65;19.02;;;6.70;99.90;;;;;;5029134;28;20174;-59
2022/01/04 07:48:10;;;;;;;32.53;18.52;;;6.70;99.90;;;;;;5011166;28;20029;-60
2022/01/04 07:50:40;;;;;;;29.65;18.13;;;6.70;99.90;;;;;;5028591;28;20097;-60
2022/01/04 07:53:07;;;;;;;34.40;19.00;;;6.70;99.90;;;;;;5029011;28;20053;-59
2022/01/04 07:55:33;;;;;;;28.38;18.70;;;6.70;99.90;;;;;;5027001;28;20492;-60
2022/01/04 07:57:59;;;;;;;28.85;17.70;;;6.70;99.90;;;;;;5028474;28;20036;-60
2022/01/04 08:00:25;;;;;;;28.52;17.70;;;6.70;99.90;;;;;;5010078;28;20021;-59
2022/01/04 08:02:52;;;;;;;29.77;17.40;;;6.70;99.90;;;;;;5028397;28;20391;-59
2022/01/04 08:05:18;;;;;;;31.95;19.00;;;6.60;99.90;;;;;;5029162;28;20022;-60
2022/01/04 08:07:44;;;;;;;32.58;19.02;;;6.70;99.90;;;;;;5028746;28;20052;-61
2022/01/04 08:10:11;;;;;;;31.02;18.38;;;6.70;99.90;;;;;;5027453;28;20056;-61
2022/01/04 08:12:37;;;;;;;31.83;18.42;;;6.60;99.90;;;;;;5027160;28;20096;-60
2022/01/04 08:15:07;;;;;;;28.17;18.50;;;6.70;99.90;;;;;;5009884;28;20025;-59
2022/01/04 08:17:32;;;;;;;33.55;19.08;;;6.70;99.90;;;;;;5025900;28;20030;-59
2022/01/04 08:19:59;;;;;;;30.23;17.42;;;6.70;99.90;;;;;;5027377;28;20024;-59
2022/01/04 08:22:25;;;;;;;37.47;19.73;;;6.70;99.90;;;;;;5026836;28;20037;-60
2022/01/04 08:24:50;;;;;;;33.58;19.15;;;6.70;99.90;;;;;;5026802;28;20079;-60
2022/01/04 08:27:16;;;;;;;32.47;18.73;;;6.70;99.90;;;;;;5025850;28;20036;-60
2022/01/04 08:29:42;;;;;;;37.33;18.40;;;6.70;99.90;;;;;;5027036;28;20052;-61
2022/01/04 08:32:08;;;;;;;32.25;19.98;;;6.70;99.90;;;;;;5027353;28;20060;-60
2022/01/04 08:34:33;;;;;;;29.50;18.67;;;6.70;99.90;;;;;;5008190;28;20087;-60
2022/01/04 08:36:59;;;;;;;29.35;18.52;;;6.70;99.90;;;;;;5028181;28;20040;-60
2022/01/04 08:39:28;;;;;;;35.97;18.50;;;6.70;99.90;;;;;;5026286;28;20025;-60
2022/01/04 08:41:55;;;;;;;32.60;17.88;;;6.70;99.90;;;;;;5010744;28;20025;-59
2022/01/04 08:44:23;;;;;;;36.15;18.83;;;6.70;99.90;;;;;;5026464;28;20033;-60
2022/01/04 08:46:50;;;;;;;37.25;19.63;;;6.70;99.90;;;;;;5027063;28;20515;-60
2022/01/04 08:49:16;;;;;;;33.45;19.60;;;6.70;99.90;;;;;;5026279;28;20112;-60
2022/01/04 08:51:42;;;;;;;31.45;19.27;;;6.70;99.90;;;;;;5030156;28;20437;-61
2022/01/04 08:54:10;;;;;;;34.30;19.50;;;6.70;99.90;;;;;;5027582;28;20033;-60
2022/01/04 08:56:37;;;;;;;34.20;19.95;;;6.80;99.90;;;;;;5070096;23;20064;-77
2022/01/04 08:59:05;;;;;;;34.17;19.20;;;6.80;99.90;;;;;;5045916;28;20071;-77
2022/01/04 09:01:31;;;;;;;29.20;18.58;;;6.80;99.90;;;;;;5047365;28;20017;-77
2022/01/04 09:03:58;;;;;;;34.30;19.35;;;6.80;99.90;;;;;;5069857;28;20028;-78
2022/01/04 09:06:24;;;;;;;28.40;17.85;;;6.90;99.90;;;;;;5052177;28;20028;-77
2022/01/04 09:08:54;;;;;;;39.50;19.75;;;6.80;99.90;;;;;;5051968;28;20024;-77
2022/01/04 09:11:21;;;;;;;28.08;17.83;;;6.90;99.90;;;;;;5052286;28;20016;-76
2022/01/04 09:13:47;;;;;;;31.77;18.40;;;6.90;99.90;;;;;;5070092;28;20368;-76
2022/01/04 09:18:48;;;;;;;33.03;17.40;;;6.80;99.90;;;;;;5066426;28;20020;-76
2022/01/04 09:21:19;;;;;;;32.78;19.63;;;6.90;99.90;;;;;;5069588;28;20016;-76
2022/01/04 09:23:47;;;;;;;33.08;18.67;;;6.90;99.90;;;;;;5062818;28;20021;-77
2022/01/04 09:26:15;;;;;;;30.80;18.65;;;6.90;99.90;;;;;;5069805;28;20032;-77
2022/01/04 09:28:42;;;;;;;32.92;19.20;;;6.90;99.90;;;;;;5069253;28;20035;-77
2022/01/04 09:31:08;;;;;;;28.90;17.73;;;6.90;99.90;;;;;;5052348;28;20025;-76
2022/01/04 09:33:35;;;;;;;29.52;17.77;;;6.90;99.90;;;;;;5050807;28;20032;-77
2022/01/04 09:36:00;;;;;;;27.50;18.67;;;6.90;99.90;;;;;;5052720;28;20025;-76
2022/01/04 09:38:26;;;;;;;32.97;19.63;;;7.00;99.90;;;;;;5069409;28;20032;-76
2022/01/04 09:40:53;;;;;;;31.60;19.10;;;7.00;99.90;;;;;;5051575;28;20016;-76
2022/01/04 09:43:20;;;;;;;28.98;18.25;;;7.00;99.90;;;;;;5069916;28;20756;-77
2022/01/04 09:45:46;;;;;;;29.92;18.33;;;7.10;99.90;;;;;;5069574;28;20124;-77
2022/01/04 09:48:12;;;;;;;31.27;19.48;;;7.10;99.90;;;;;;5067919;28;20016;-77
2022/01/04 09:50:40;;;;;;;38.95;18.98;;;7.00;99.90;;;;;;5069407;28;20537;-77
2022/01/04 09:53:08;;;;;;;30.73;18.73;;;7.00;99.90;;;;;;5069272;28;20111;-77
2022/01/04 09:55:42;;;;;;;31.75;19.95;;;7.00;99.90;;;;;;5051420;28;20036;-76
2022/01/04 09:58:08;;;;;;;28.55;18.90;;;7.10;99.90;;;;;;5069910;28;20021;-76
2022/01/04 10:00:33;;;;;;;34.75;19.27;;;7.10;99.90;;;;;;5051442;28;20070;-77
2022/01/04 10:03:16;;;;;;;26.98;17.42;;;7.10;99.90;;;;;;5051260;28;20495;-76
2022/01/04 10:05:42;;;;;;;32.42;17.70;;;7.10;99.90;;;;;;5051457;28;20017;-76
2022/01/04 10:08:09;;;;;;;28.65;17.95;;;7.10;99.90;;;;;;5069450;28;20096;-76
2022/01/04 10:10:36;;;;;;;30.27;18.25;;;7.10;99.90;;;;;;5068901;28;20020;-76
2022/01/04 10:13:08;;;;;;;28.08;17.30;;;7.10;99.90;;;;;;5069141;28;20033;-76
2022/01/04 10:15:36;;;;;;;24.58;16.98;;;7.10;99.90;;;;;;5051081;28;20067;-77
2022/01/04 10:18:14;;;;;;;28.00;18.08;;;7.10;99.90;;;;;;5051082;28;20491;-76
2022/01/04 10:20:51;;;;;;;33.38;17.13;;;7.20;99.90;;;;;;5069504;28;20019;-76
2022/01/04 10:23:22;;;;;;;32.05;17.75;;;7.10;99.90;;;;;;5068423;28;20476;-77
2022/01/04 10:25:50;;;;;;;35.40;18.42;;;7.20;99.90;;;;;;5069435;28;20484;-76
2022/01/04 10:28:32;;;;;;;30.13;18.95;;;7.20;99.90;;;;;;5051062;28;20027;-76
2022/01/04 10:31:04;;;;;;;28.33;17.00;;;7.20;99.90;;;;;;5037422;28;20090;-76
2022/01/04 10:33:32;;;;;;;27.40;17.75;;;7.20;99.90;;;;;;5050403;28;20198;-76
2022/01/04 10:35:59;;;;;;;22.95;16.42;;;7.30;99.90;;;;;;5069672;28;20025;-76
2022/01/04 10:38:36;;;;;;;21.48;15.13;;;7.30;99.90;;;;;;5067092;28;20048;-76
2022/01/04 10:41:10;;;;;;;25.45;15.38;;;7.30;99.90;;;;;;5070272;28;20059;-76
2022/01/04 10:43:52;;;;;;;27.42;14.52;;;7.30;99.90;;;;;;5072368;28;20017;-76
2022/01/04 10:46:28;;;;;;;24.25;15.18;;;7.40;99.90;;;;;;5054234;28;20024;-76
2022/01/04 10:48:55;;;;;;;19.40;13.30;;;7.40;99.90;;;;;;5053594;28;20036;-76
2022/01/04 10:51:22;;;;;;;25.33;13.85;;;7.40;99.90;;;;;;5053778;28;20021;-76
2022/01/04 10:54:00;;;;;;;22.67;14.82;;;7.40;99.90;;;;;;5054060;28;20578;-75
2022/01/04 10:56:31;;;;;;;25.30;15.80;;;7.40;99.90;;;;;;5052573;28;20515;-76
2022/01/04 10:58:59;;;;;;;25.40;15.55;;;7.40;99.90;;;;;;5072408;28;20016;-76
2022/01/04 11:01:46;;;;;;;27.85;16.50;;;7.40;99.90;;;;;;5072423;28;20162;-76
2022/01/04 11:04:17;;;;;;;26.77;15.48;;;7.40;99.90;;;;;;5071799;28;20400;-76
2022/01/04 11:06:44;;;;;;;24.48;14.40;;;7.50;99.90;;;;;;5064934;28;20028;-76
2022/01/04 11:09:11;;;;;;;22.35;14.30;;;7.50;99.90;;;;;;5053990;28;20045;-76
2022/01/04 11:11:37;;;;;;;25.20;14.52;;;7.50;99.90;;;;;;5072386;28;20017;-76
2022/01/04 11:14:04;;;;;;;26.55;14.70;;;7.50;99.90;;;;;;5072395;28;20014;-76
2022/01/04 11:16:30;;;;;;;21.13;13.45;;;7.40;99.90;;;;;;5072219;28;20143;-76
2022/01/04 11:18:58;;;;;;;23.05;12.77;;;7.50;99.90;;;;;;5054111;28;20017;-76
2022/01/04 11:21:32;;;;;;;17.55;11.82;;;7.50;99.90;;;;;;5071741;28;20032;-76
2022/01/04 11:24:01;;;;;;;15.38;10.85;;;7.50;99.90;;;;;;5047778;28;20387;-76
2022/01/04 11:26:27;;;;;;;20.10;12.10;;;7.50;99.90;;;;;;5071967;28;20036;-76
2022/01/04 11:28:54;;;;;;;21.30;11.73;;;7.50;99.90;;;;;;5053899;28;20064;-76
2022/01/04 11:31:41;;;;;;;14.13;11.10;;;7.40;99.90;;;;;;5053502;28;20055;-75
2022/01/04 11:34:06;;;;;;;15.23;8.93;;;7.40;99.90;;;;;;5071579;28;20028;-76
2022/01/04 11:36:44;;;;;;;18.23;9.57;;;7.40;99.90;;;;;;5053814;28;20039;-76
2022/01/04 11:39:30;;;;;;;17.33;9.77;;;7.40;99.90;;;;;;5053372;28;20078;-77
2022/01/04 11:41:57;;;;;;;14.37;8.33;;;7.40;99.90;;;;;;5070779;28;20051;-76
2022/01/04 11:44:25;;;;;;;14.80;7.68;;;7.30;99.90;;;;;;5053599;28;20097;-76
2022/01/04 11:47:04;;;;;;;10.98;7.10;;;7.30;99.90;;;;;;5071386;28;20025;-77
2022/01/04 11:49:30;;;;;;;11.75;6.13;;;7.30;99.90;;;;;;5051835;28;20103;-76
2022/01/04 11:51:56;;;;;;;9.20;5.20;;;7.30;99.90;;;;;;5052408;28;20113;-76
2022/01/04 11:54:28;;;;;;;6.80;5.03;;;7.20;99.90;;;;;;5071375;28;20487;-76
2022/01/04 11:56:57;;;;;;;9.07;3.88;;;7.20;99.90;;;;;;5050369;28;20028;-76
2022/01/04 11:59:32;;;;;;;6.13;2.90;;;7.10;99.90;;;;;;5051168;28;20017;-75
2022/01/04 12:02:24;;;;;;;6.22;2.45;;;7.10;99.90;;;;;;5069653;28;20012;-76
2022/01/04 12:04:53;;;;;;;4.45;2.40;;;7.00;99.90;;;;;;5068249;28;20108;-76
2022/01/04 12:07:41;;;;;;;5.53;2.08;;;7.00;99.90;;;;;;5056888;28;20016;-76
2022/01/04 12:10:19;;;;;;;2.70;1.58;;;6.90;99.90;;;;;;5070409;28;20039;-76
2022/01/04 12:12:59;;;;;;;2.28;1.60;;;6.90;99.90;;;;;;5067177;28;20025;-76
2022/01/04 12:15:33;;;;;;;4.25;1.73;;;6.90;99.90;;;;;;5052089;28;20098;-76
2022/01/04 12:18:05;;;;;;;3.83;1.63;;;6.90;99.90;;;;;;5068674;28;20017;-76
2022/01/04 12:20:43;;;;;;;1.45;1.30;;;6.80;99.90;;;;;;5069768;28;20112;-76
2022/01/04 12:23:24;;;;;;;3.17;1.45;;;6.80;99.90;;;;;;5052416;28;20017;-76
2022/01/04 12:26:16;;;;;;;4.15;1.10;;;6.70;99.90;;;;;;5055058;28;20021;-77
2022/01/04 12:28:45;;;;;;;1.52;0.93;;;6.70;99.90;;;;;;5065784;28;20036;-76
2022/01/04 12:31:13;;;;;;;2.78;1.25;;;6.70;99.90;;;;;;5068625;28;20013;-76
2022/01/04 12:33:49;;;;;;;2.97;1.13;;;6.60;99.90;;;;;;5068721;28;20024;-76
2022/01/04 12:36:38;;;;;;;0.60;0.60;;;6.60;99.90;;;;;;5051085;28;20242;-76
2022/01/04 12:39:13;;;;;;;1.35;0.75;;;6.50;99.90;;;;;;5069258;28;20056;-76
2022/01/04 12:41:41;;;;;;;0.93;0.77;;;6.50;99.90;;;;;;5063005;28;20047;-76
2022/01/04 12:44:08;;;;;;;1.58;1.00;;;6.50;99.90;;;;;;5052142;28;20583;-76
2022/01/04 12:46:37;;;;;;;2.63;1.17;;;6.50;99.90;;;;;;5051935;28;20086;-77
2022/01/04 12:49:09;;;;;;;3.28;2.08;;;6.40;99.90;;;;;;5069997;28;20091;-76
2022/01/04 12:51:39;;;;;;;3.55;2.17;;;6.40;99.90;;;;;;5068820;28;20555;-76
2022/01/04 12:54:08;;;;;;;4.10;2.08;;;6.30;99.90;;;;;;5070284;28;20020;-76
2022/01/04 12:56:47;;;;;;;2.35;2.17;;;6.30;99.90;;;;;;5069663;28;20028;-76
2022/01/04 12:59:25;;;;;;;2.70;2.50;;;6.30;99.90;;;;;;5049889;28;20027;-76
2022/01/04 13:01:53;;;;;;;3.58;2.50;;;6.20;99.90;;;;;;5070276;28;20379;-76